createdAt,value
2024-01-16T00:00:44.473Z,603.00
2024-01-16T00:01:44.502Z,603.00
2024-01-16T00:02:44.698Z,604.00
2024-01-16T00:03:44.584Z,605.00
2024-01-16T00:04:44.615Z,603.00
2024-01-16T00:55:43.976Z,605.00
2024-01-16T00:56:45.051Z,647.00
2024-01-16T00:57:44.961Z,802.00
2024-01-16T00:58:44.967Z,1015.00
2024-01-16T00:59:45.045Z,1236.00
2024-01-16T01:00:45.008Z,1367.00
2024-01-16T01:01:44.982Z,1251.00
2024-01-16T01:02:45.040Z,1167.00
2024-01-16T01:03:45.006Z,1085.00
2024-01-16T01:04:45.099Z,1018.00
2024-01-16T01:05:45.129Z,973.00
2024-01-16T01:06:44.971Z,915.00
2024-01-16T01:07:44.982Z,882.00
2024-01-16T01:08:45.038Z,848.00
2024-01-16T01:09:44.994Z,802.00
2024-01-16T01:10:45.026Z,788.00
2024-01-16T01:11:45.144Z,758.00
2024-01-16T01:12:44.985Z,732.00
2024-01-16T01:13:45.017Z,715.00
2024-01-16T01:14:45.061Z,683.00
2024-01-16T01:15:44.999Z,687.00
2024-01-16T01:16:44.999Z,662.00
2024-01-16T01:17:45.045Z,661.00
2024-01-16T01:18:45.087Z,653.00
2024-01-16T01:19:45.003Z,646.00
2024-01-16T01:20:45.226Z,644.00
2024-01-16T01:21:45.020Z,643.00
2024-01-16T01:22:45.018Z,643.00
2024-01-16T01:23:45.225Z,637.00
2024-01-16T01:24:45.024Z,630.00
2024-01-16T01:25:45.024Z,626.00
2024-01-16T01:26:45.124Z,626.00
2024-01-16T01:27:45.048Z,623.00
2024-01-16T01:28:45.029Z,620.00
2024-01-16T01:29:45.124Z,622.00
2024-01-16T01:30:45.080Z,621.00
2024-01-16T01:31:45.037Z,612.00
2024-01-16T01:32:45.142Z,614.00
2024-01-16T01:33:45.124Z,610.00
2024-01-16T01:34:45.069Z,610.00
2024-01-16T01:35:45.097Z,608.00
2024-01-16T01:36:45.122Z,608.00
2024-01-16T01:37:45.146Z,612.00
2024-01-16T01:38:45.268Z,606.00
2024-01-16T01:39:45.203Z,606.00
2024-01-16T01:40:45.235Z,607.00
2024-01-16T01:41:45.280Z,604.00
2024-01-16T01:42:45.304Z,604.00
2024-01-16T01:43:45.360Z,601.00
2024-01-16T01:44:45.498Z,603.00
2024-01-16T01:45:45.400Z,601.00
2024-01-16T01:46:45.427Z,605.00
2024-01-16T01:47:45.623Z,604.00
2024-01-16T01:48:45.611Z,602.00
2024-01-16T01:49:45.564Z,603.00
2024-01-16T01:50:45.659Z,600.00
2024-01-16T01:51:45.610Z,601.00
2024-01-16T01:52:45.652Z,602.00
2024-01-16T01:53:45.792Z,606.00
2024-01-16T01:54:45.714Z,602.00
2024-01-16T01:55:45.756Z,601.00
2024-01-16T01:56:45.966Z,604.00
2024-01-16T01:57:45.841Z,602.00
2024-01-16T01:58:45.885Z,603.00
2024-01-16T01:59:45.990Z,601.00
2024-01-16T02:00:46.011Z,604.00
2024-01-16T02:01:46.000Z,605.00
2024-01-16T02:02:46.085Z,600.00
2024-01-16T02:03:46.117Z,604.00
2024-01-16T02:04:46.148Z,607.00
2024-01-16T02:05:46.213Z,605.00
2024-01-16T02:06:46.150Z,606.00
2024-01-16T02:07:46.187Z,601.00
2024-01-16T02:08:46.291Z,602.00
2024-01-16T02:09:46.260Z,602.00
2024-01-16T02:10:46.288Z,602.00
2024-01-16T02:11:46.368Z,604.00
2024-01-16T02:12:46.365Z,601.00
2024-01-16T02:13:46.387Z,602.00
2024-01-16T02:14:46.499Z,603.00
2024-01-16T02:15:46.472Z,606.00
2024-01-16T02:16:46.571Z,600.00
2024-01-16T02:17:46.597Z,605.00
2024-01-16T02:18:46.574Z,602.00
2024-01-16T02:19:46.585Z,605.00
2024-01-16T02:20:46.685Z,606.00
2024-01-16T02:21:50.323Z,605.00
2024-01-16T02:22:46.642Z,606.00
2024-01-16T02:23:46.735Z,606.00
2024-01-16T02:24:46.657Z,606.00
2024-01-16T02:25:46.657Z,603.00
2024-01-16T02:26:46.780Z,604.00
2024-01-16T02:27:46.683Z,607.00
2024-01-16T02:28:46.710Z,604.00
2024-01-16T02:29:46.813Z,601.00
2024-01-16T02:30:46.822Z,602.00
2024-01-16T02:31:46.854Z,605.00
2024-01-16T02:32:46.946Z,601.00
2024-01-16T02:33:46.951Z,603.00
2024-01-16T02:34:46.908Z,602.00
2024-01-16T02:35:47.015Z,601.00
2024-01-16T02:36:46.980Z,601.00
2024-01-16T02:37:47.017Z,602.00
2024-01-16T02:38:47.243Z,601.00
2024-01-16T02:39:47.085Z,603.00
2024-01-16T02:40:47.120Z,602.00
2024-01-16T02:41:47.197Z,605.00
2024-01-16T02:42:47.197Z,604.00
2024-01-16T02:43:47.231Z,603.00
2024-01-16T02:44:47.331Z,606.00
2024-01-16T02:45:47.319Z,603.00
2024-01-16T02:46:47.358Z,605.00
2024-01-16T02:47:47.469Z,602.00
2024-01-16T02:48:47.591Z,604.00
2024-01-16T02:49:47.476Z,603.00
2024-01-16T02:50:47.583Z,603.00
2024-01-16T02:51:47.552Z,604.00
2024-01-16T02:52:47.581Z,601.00
2024-01-16T02:53:47.675Z,604.00
2024-01-16T02:54:47.663Z,606.00
2024-01-16T02:55:47.711Z,602.00
2024-01-16T02:56:47.862Z,604.00
2024-01-16T02:57:47.799Z,606.00
2024-01-16T02:58:47.825Z,603.00
2024-01-16T02:59:48.079Z,602.00
2024-01-16T03:00:47.951Z,602.00
2024-01-16T03:01:47.935Z,601.00
2024-01-16T03:02:48.133Z,605.00
2024-01-16T03:03:48.073Z,604.00
2024-01-16T03:04:48.056Z,603.00
2024-01-16T03:05:48.157Z,604.00
2024-01-16T03:06:48.286Z,604.00
2024-01-16T03:07:48.198Z,603.00
2024-01-16T03:08:48.307Z,602.00
2024-01-16T03:09:48.256Z,604.00
2024-01-16T03:10:48.298Z,606.00
2024-01-16T03:11:48.426Z,605.00
2024-01-16T03:12:48.378Z,603.00
2024-01-16T03:13:48.427Z,601.00
2024-01-16T03:14:48.486Z,603.00
2024-01-16T03:15:48.490Z,601.00
2024-01-16T03:16:48.531Z,602.00
2024-01-16T03:17:48.773Z,603.00
2024-01-16T03:18:48.799Z,605.00
2024-01-16T03:19:48.672Z,607.00
2024-01-16T03:20:48.755Z,604.00
2024-01-16T03:21:48.710Z,600.00
2024-01-16T03:22:48.759Z,607.00
2024-01-16T03:23:49.005Z,605.00
2024-01-16T03:24:48.841Z,600.00
2024-01-16T03:25:48.891Z,606.00
2024-01-16T03:26:48.963Z,605.00
2024-01-16T03:27:48.955Z,607.00
2024-01-16T03:28:48.997Z,607.00
2024-01-16T03:29:49.045Z,605.00
2024-01-16T03:30:49.139Z,606.00
2024-01-16T03:31:49.221Z,606.00
2024-01-16T03:32:49.221Z,606.00
2024-01-16T03:33:49.259Z,607.00
2024-01-16T03:34:49.250Z,603.00
2024-01-16T03:35:49.432Z,604.00
2024-01-16T03:36:49.292Z,607.00
2024-01-16T03:37:49.352Z,603.00
2024-01-16T03:38:49.406Z,604.00
2024-01-16T03:39:49.419Z,605.00
2024-01-16T03:40:49.486Z,607.00
2024-01-16T03:41:49.607Z,603.00
2024-01-16T03:42:49.563Z,607.00
2024-01-16T03:43:49.576Z,606.00
2024-01-16T03:44:49.687Z,605.00
2024-01-16T03:45:49.660Z,609.00
2024-01-16T03:46:49.697Z,607.00
2024-01-16T03:47:49.816Z,604.00
2024-01-16T03:48:49.903Z,603.00
2024-01-16T03:49:49.843Z,605.00
2024-01-16T03:50:49.906Z,603.00
2024-01-16T03:51:49.944Z,607.00
2024-01-16T03:52:49.949Z,606.00
2024-01-16T03:53:50.010Z,602.00
2024-01-16T03:54:50.062Z,602.00
2024-01-16T03:55:50.069Z,607.00
2024-01-16T03:56:50.191Z,603.00
2024-01-16T03:57:50.142Z,606.00
2024-01-16T03:58:50.181Z,604.00
2024-01-16T03:59:50.281Z,607.00
2024-01-16T04:00:50.274Z,605.00
2024-01-16T04:01:50.296Z,605.00
2024-01-16T04:02:50.402Z,605.00
2024-01-16T04:03:50.400Z,603.00
2024-01-16T04:04:50.465Z,606.00
2024-01-16T04:05:50.545Z,604.00
2024-01-16T04:06:50.502Z,605.00
2024-01-16T04:07:50.606Z,603.00
2024-01-16T04:08:50.634Z,605.00
2024-01-16T04:09:50.645Z,605.00
2024-01-16T04:10:50.683Z,605.00
2024-01-16T04:11:50.788Z,600.00
2024-01-16T04:12:50.771Z,606.00
2024-01-16T04:13:51.040Z,604.00
2024-01-16T04:14:50.978Z,603.00
2024-01-16T04:15:50.903Z,605.00
2024-01-16T04:16:50.933Z,608.00
2024-01-16T04:17:51.038Z,602.00
2024-01-16T04:18:51.171Z,603.00
2024-01-16T04:19:51.070Z,605.00
2024-01-16T04:20:51.186Z,602.00
2024-01-16T04:21:51.124Z,604.00
2024-01-16T04:22:51.944Z,604.00
2024-01-16T04:23:51.250Z,607.00
2024-01-16T04:24:51.254Z,605.00
2024-01-16T04:25:51.275Z,606.00
2024-01-16T04:26:51.372Z,606.00
2024-01-16T04:27:51.360Z,604.00
2024-01-16T04:28:51.398Z,604.00
2024-01-16T04:29:51.488Z,605.00
2024-01-16T04:30:51.505Z,609.00
2024-01-16T04:31:51.514Z,601.00
2024-01-16T04:32:51.674Z,605.00
2024-01-16T04:33:51.916Z,606.00
2024-01-16T04:34:51.632Z,607.00
2024-01-16T04:35:51.748Z,601.00
2024-01-16T04:36:51.710Z,604.00
2024-01-16T04:37:51.744Z,604.00
2024-01-16T04:38:51.833Z,605.00
2024-01-16T04:39:51.875Z,607.00
2024-01-16T04:40:51.890Z,604.00
2024-01-16T04:41:51.951Z,602.00
2024-01-16T04:42:51.979Z,603.00
2024-01-16T04:43:52.027Z,605.00
2024-01-16T04:44:52.141Z,604.00
2024-01-16T04:45:52.113Z,605.00
2024-01-16T04:46:52.171Z,602.00
2024-01-16T04:47:52.286Z,602.00
2024-01-16T04:48:52.357Z,603.00
2024-01-16T04:49:59.605Z,600.00
2024-01-16T04:51:00.656Z,600.00
2024-01-16T04:52:00.618Z,600.00
2024-01-16T04:53:00.633Z,600.00
2024-01-16T04:54:00.628Z,600.00
2024-01-16T04:55:00.652Z,601.00
2024-01-16T04:56:00.630Z,605.00
2024-01-16T04:57:00.611Z,604.00
2024-01-16T04:58:00.611Z,600.00
2024-01-16T04:59:00.618Z,604.00
2024-01-16T05:00:00.711Z,602.00
2024-01-16T05:01:01.257Z,600.00
2024-01-16T05:02:00.623Z,603.00
2024-01-16T05:03:00.720Z,600.00
2024-01-16T05:04:00.683Z,604.00
2024-01-16T05:05:00.674Z,607.00
2024-01-16T05:06:00.835Z,605.00
2024-01-16T05:07:00.663Z,603.00
2024-01-16T05:08:00.700Z,607.00
2024-01-16T05:09:00.741Z,608.00
2024-01-16T05:10:00.670Z,605.00
2024-01-16T05:11:00.651Z,605.00
2024-01-16T05:12:00.620Z,606.00
2024-01-16T05:13:00.619Z,606.00
2024-01-16T05:14:00.626Z,607.00
2024-01-16T05:15:00.649Z,607.00
2024-01-16T05:16:00.634Z,602.00
2024-01-16T05:17:00.642Z,604.00
2024-01-16T05:18:00.817Z,604.00
2024-01-16T05:19:00.762Z,603.00
2024-01-16T05:20:00.714Z,601.00
2024-01-16T05:21:01.034Z,605.00
2024-01-16T05:22:00.756Z,600.00
2024-01-16T05:23:00.829Z,604.00
2024-01-16T05:24:01.840Z,603.00
2024-01-16T05:25:00.938Z,607.00
2024-01-16T05:26:00.955Z,606.00
2024-01-16T05:27:01.052Z,602.00
2024-01-16T05:28:01.060Z,604.00
2024-01-16T05:29:01.118Z,606.00
2024-01-16T05:30:01.237Z,608.00
2024-01-16T05:31:01.284Z,604.00
2024-01-16T05:32:01.270Z,605.00
2024-01-16T05:33:01.397Z,602.00
2024-01-16T05:34:01.529Z,607.00
2024-01-16T05:35:01.401Z,604.00
2024-01-16T05:36:01.602Z,603.00
2024-01-16T05:37:01.496Z,604.00
2024-01-16T05:38:01.753Z,605.00
2024-01-16T05:39:01.588Z,602.00
2024-01-16T05:40:01.654Z,603.00
2024-01-16T05:41:01.685Z,608.00
2024-01-16T05:42:01.790Z,603.00
2024-01-16T05:43:01.816Z,605.00
2024-01-16T05:44:01.862Z,603.00
2024-01-16T05:45:01.884Z,605.00
2024-01-16T05:46:02.018Z,605.00
2024-01-16T05:47:01.991Z,608.00
2024-01-16T05:48:02.395Z,604.00
2024-01-16T05:49:02.387Z,606.00
2024-01-16T05:50:02.231Z,600.00
2024-01-16T05:51:02.576Z,603.00
2024-01-16T05:52:02.221Z,600.00
2024-01-16T05:53:02.269Z,607.00
2024-01-16T05:54:02.320Z,606.00
2024-01-16T05:55:02.367Z,605.00
2024-01-16T05:56:02.413Z,607.00
2024-01-16T05:57:02.487Z,603.00
2024-01-16T05:58:02.494Z,605.00
2024-01-16T05:59:02.581Z,607.00
2024-01-16T06:00:02.624Z,602.00
2024-01-16T06:01:02.686Z,607.00
2024-01-16T06:02:02.726Z,605.00
2024-01-16T06:03:02.750Z,605.00
2024-01-16T06:04:02.803Z,609.00
2024-01-16T06:05:02.841Z,607.00
2024-01-16T06:06:03.015Z,603.00
2024-01-16T06:07:02.972Z,608.00
2024-01-16T06:08:02.973Z,606.00
2024-01-16T06:09:03.029Z,602.00
2024-01-16T06:10:04.620Z,606.00
2024-01-16T06:11:03.064Z,609.00
2024-01-16T06:12:03.084Z,608.00
2024-01-16T06:13:03.063Z,608.00
2024-01-16T06:14:03.068Z,604.00
2024-01-16T06:15:03.170Z,604.00
2024-01-16T06:16:03.071Z,605.00
2024-01-16T06:17:03.076Z,609.00
2024-01-16T06:18:03.273Z,602.00
2024-01-16T06:19:03.175Z,609.00
2024-01-16T06:20:03.297Z,606.00
2024-01-16T06:21:03.134Z,607.00
2024-01-16T06:22:03.069Z,605.00
2024-01-16T06:23:03.090Z,605.00
2024-01-16T06:24:03.251Z,605.00
2024-01-16T06:25:03.075Z,600.00
2024-01-16T06:26:03.086Z,601.00
2024-01-16T06:27:03.094Z,606.00
2024-01-16T06:28:04.362Z,602.00
2024-01-16T06:29:03.098Z,601.00
2024-01-16T06:30:03.193Z,600.00
2024-01-16T06:31:03.161Z,603.00
2024-01-16T06:32:03.207Z,605.00
2024-01-16T06:33:03.312Z,602.00
2024-01-16T06:34:03.323Z,604.00
2024-01-16T06:35:03.273Z,601.00
2024-01-16T06:36:03.342Z,608.00
2024-01-16T06:37:03.791Z,604.00
2024-01-16T06:38:03.395Z,613.00
2024-01-16T06:39:03.427Z,609.00
2024-01-16T06:40:03.457Z,612.00
2024-01-16T06:41:03.795Z,610.00
2024-01-16T06:42:04.073Z,614.00
2024-01-16T06:43:03.561Z,608.00
2024-01-16T06:44:03.672Z,612.00
2024-01-16T06:45:03.622Z,609.00
2024-01-16T06:46:03.655Z,608.00
2024-01-16T06:47:03.900Z,609.00
2024-01-16T06:48:03.921Z,605.00
2024-01-16T06:49:03.784Z,612.00
2024-01-16T06:50:03.792Z,612.00
2024-01-16T06:51:03.769Z,615.00
2024-01-16T06:52:04.268Z,621.00
2024-01-16T06:53:03.800Z,617.00
2024-01-16T06:54:04.333Z,625.00
2024-01-16T06:55:03.838Z,630.00
2024-01-16T06:56:03.925Z,636.00
2024-01-16T06:57:07.472Z,644.00
2024-01-16T06:58:03.899Z,644.00
2024-01-16T06:59:04.279Z,645.00
2024-01-16T07:00:04.038Z,649.00
2024-01-16T07:01:03.934Z,659.00
2024-01-16T07:02:04.277Z,665.00
2024-01-16T07:03:03.911Z,691.00
2024-01-16T07:04:04.344Z,696.00
2024-01-16T07:05:03.932Z,731.00
2024-01-16T07:06:04.223Z,787.00
2024-01-16T07:07:03.915Z,821.00
2024-01-16T07:08:03.903Z,838.00
2024-01-16T07:09:04.281Z,826.00
2024-01-16T07:10:03.895Z,810.00
2024-01-16T07:11:03.887Z,770.00
2024-01-16T07:12:03.906Z,733.00
2024-01-16T07:13:07.079Z,723.00
2024-01-16T07:14:04.287Z,723.00
2024-01-16T07:15:03.914Z,724.00
2024-01-16T07:16:03.882Z,727.00
2024-01-16T07:17:03.969Z,738.00
2024-01-16T07:18:04.019Z,760.00
2024-01-16T07:19:04.420Z,769.00
2024-01-16T07:20:03.924Z,790.00
2024-01-16T07:21:03.951Z,799.00
2024-01-16T07:22:04.293Z,823.00
2024-01-16T07:23:03.918Z,839.00
2024-01-16T07:24:03.876Z,859.00
2024-01-16T07:25:04.274Z,880.00
2024-01-16T07:26:05.519Z,895.00
2024-01-16T07:27:03.913Z,920.00
2024-01-16T07:28:04.018Z,934.00
2024-01-16T07:29:03.897Z,947.00
2024-01-16T07:30:04.335Z,960.00
2024-01-16T07:31:03.961Z,977.00
2024-01-16T07:32:03.895Z,1000.00
2024-01-16T07:33:04.413Z,1012.00
2024-01-16T07:34:04.555Z,1033.00
2024-01-16T07:35:04.304Z,1587.00
2024-01-16T07:36:03.921Z,1645.00
2024-01-16T07:37:07.141Z,1570.00
2024-01-16T07:38:05.624Z,1518.00
2024-01-16T07:39:04.433Z,1465.00
2024-01-16T07:40:04.268Z,1430.00
2024-01-16T07:41:03.939Z,1401.00
2024-01-16T07:42:04.580Z,1372.00
2024-01-16T07:43:03.923Z,1358.00
2024-01-16T07:44:04.305Z,1352.00
2024-01-16T07:45:04.942Z,1361.00
2024-01-16T07:46:03.942Z,1362.00
2024-01-16T07:47:03.952Z,1350.00
2024-01-16T07:48:04.054Z,1370.00
2024-01-16T07:49:05.203Z,1378.00
2024-01-16T07:50:08.793Z,1384.00
2024-01-16T07:51:04.425Z,1385.00
2024-01-16T07:52:04.518Z,1386.00
2024-01-16T07:53:04.258Z,1391.00
2024-01-16T07:54:05.023Z,1398.00
2024-01-16T07:55:04.670Z,1415.00
2024-01-16T07:56:04.505Z,1434.00
2024-01-16T07:57:04.284Z,1441.00
2024-01-16T07:58:04.299Z,1445.00
2024-01-16T07:59:03.941Z,1444.00
2024-01-16T08:00:05.218Z,1463.00
2024-01-16T08:01:04.402Z,1462.00
2024-01-16T08:02:04.289Z,1474.00
2024-01-16T08:03:04.821Z,1465.00
2024-01-16T08:04:04.122Z,1479.00
2024-01-16T08:05:03.937Z,1496.00
2024-01-16T08:06:05.509Z,1505.00
2024-01-16T08:07:04.323Z,1507.00
2024-01-16T08:08:04.820Z,1507.00
2024-01-16T08:09:04.884Z,1510.00
2024-01-16T08:10:04.650Z,1510.00
2024-01-16T08:11:04.544Z,1516.00
2024-01-16T08:12:04.501Z,1505.00
2024-01-16T08:13:04.542Z,1485.00
2024-01-16T08:14:04.412Z,1477.00
2024-01-16T08:15:04.260Z,1476.00
2024-01-16T08:16:04.160Z,1472.00
2024-01-16T08:17:04.137Z,1482.00
2024-01-16T08:18:04.538Z,1483.00
2024-01-16T08:19:04.764Z,1484.00
2024-01-16T08:20:04.072Z,1484.00
2024-01-16T08:21:04.160Z,1490.00
2024-01-16T08:22:06.682Z,1488.00
2024-01-16T08:23:04.031Z,1488.00
2024-01-16T08:24:05.152Z,1493.00
2024-01-16T08:25:04.454Z,1498.00
2024-01-16T08:26:04.365Z,1505.00
2024-01-16T08:27:04.150Z,1531.00
2024-01-16T08:28:04.026Z,1538.00
2024-01-16T08:29:04.056Z,1538.00
2024-01-16T08:30:04.843Z,1544.00
2024-01-16T08:31:04.447Z,1555.00
2024-01-16T08:32:04.102Z,1556.00
2024-01-16T08:33:04.211Z,1555.00
2024-01-16T08:34:05.445Z,1562.00
2024-01-16T08:35:04.542Z,1553.00
2024-01-16T08:36:04.231Z,1560.00
2024-01-16T08:37:11.653Z,1561.00
2024-01-16T08:38:04.370Z,1561.00
2024-01-16T08:39:04.237Z,1563.00
2024-01-16T08:40:04.210Z,1562.00
2024-01-16T08:41:04.392Z,1548.00
2024-01-16T08:42:04.257Z,1540.00
2024-01-16T08:43:07.440Z,1521.00
2024-01-16T08:44:04.262Z,1522.00
2024-01-16T08:45:04.207Z,1522.00
2024-01-16T08:46:04.457Z,1528.00
2024-01-16T08:47:11.674Z,1530.00
2024-01-16T08:48:05.823Z,1522.00
2024-01-16T08:49:08.546Z,1522.00
2024-01-16T08:50:04.284Z,1523.00
2024-01-16T08:51:04.488Z,1528.00
2024-01-16T08:52:04.241Z,1532.00
2024-01-16T08:53:04.479Z,1557.00
2024-01-16T08:54:04.332Z,1658.00
2024-01-16T08:55:04.434Z,1662.00
2024-01-16T08:56:04.285Z,1592.00
2024-01-16T08:57:04.253Z,1473.00
2024-01-16T08:58:04.404Z,1353.00
2024-01-16T08:59:04.291Z,1263.00
2024-01-16T09:00:04.436Z,1186.00
2024-01-16T09:01:04.256Z,1134.00
2024-01-16T09:02:04.383Z,1087.00
2024-01-16T09:03:05.350Z,1058.00
2024-01-16T09:04:04.305Z,1032.00
2024-01-16T09:05:04.497Z,1028.00
2024-01-16T09:06:04.736Z,1013.00
2024-01-16T09:07:04.575Z,1007.00
2024-01-16T09:08:04.356Z,1006.00
2024-01-16T09:09:04.426Z,1003.00
2024-01-16T09:10:04.431Z,1009.00
2024-01-16T09:11:07.626Z,993.00
2024-01-16T09:12:04.405Z,993.00
2024-01-16T09:13:04.511Z,995.00
2024-01-16T09:14:06.010Z,1000.00
2024-01-16T09:15:04.842Z,1017.00
2024-01-16T09:16:04.623Z,994.00
2024-01-16T09:17:04.325Z,999.00
2024-01-16T09:18:05.910Z,1009.00
2024-01-16T09:19:04.791Z,1029.00
2024-01-16T09:20:05.332Z,1045.00
2024-01-16T09:21:04.747Z,1048.00
2024-01-16T09:22:05.363Z,1052.00
2024-01-16T09:23:04.984Z,1068.00
2024-01-16T09:24:05.008Z,1060.00
2024-01-16T09:25:05.929Z,1060.00
2024-01-16T09:26:05.114Z,1094.00
2024-01-16T09:27:05.140Z,1133.00
2024-01-16T09:28:05.151Z,1148.00
2024-01-16T09:29:05.192Z,1136.00
2024-01-16T09:30:06.282Z,1102.00
2024-01-16T09:31:05.780Z,1076.00
2024-01-16T09:32:05.951Z,1032.00
2024-01-16T09:33:05.555Z,1005.00
2024-01-16T09:34:08.236Z,971.00
2024-01-16T09:35:05.449Z,956.00
2024-01-16T09:36:05.409Z,910.00
2024-01-16T09:37:05.378Z,866.00
2024-01-16T09:38:05.502Z,831.00
2024-01-16T09:39:05.486Z,795.00
2024-01-16T09:40:09.127Z,761.00
2024-01-16T09:41:08.636Z,754.00
2024-01-16T09:42:05.439Z,762.00
2024-01-16T09:43:06.437Z,762.00
2024-01-16T09:44:05.445Z,765.00
2024-01-16T09:45:05.939Z,774.00
2024-01-16T09:46:05.467Z,787.00
2024-01-16T09:47:05.445Z,783.00
2024-01-16T09:48:05.660Z,790.00
2024-01-16T09:49:05.567Z,794.00
2024-01-16T09:50:05.860Z,803.00
2024-01-16T09:51:05.500Z,810.00
2024-01-16T09:52:05.454Z,847.00
2024-01-16T09:53:05.844Z,1052.00
2024-01-16T09:54:05.451Z,1156.00
2024-01-16T09:55:05.450Z,1222.00
2024-01-16T09:56:05.865Z,1134.00
2024-01-16T09:57:05.481Z,966.00
2024-01-16T09:58:05.449Z,845.00
2024-01-16T09:59:05.492Z,737.00
2024-01-16T10:00:05.885Z,669.00
2024-01-16T10:01:05.536Z,649.00
2024-01-16T10:02:05.497Z,629.00
2024-01-16T10:03:05.726Z,618.00
2024-01-16T10:04:05.621Z,611.00
2024-01-16T10:05:05.839Z,610.00
2024-01-16T10:06:05.756Z,610.00
2024-01-16T10:07:05.845Z,606.00
2024-01-16T10:08:05.881Z,603.00
2024-01-16T10:09:05.718Z,609.00
2024-01-16T10:10:05.869Z,609.00
2024-01-16T10:11:07.347Z,612.00
2024-01-16T10:12:05.939Z,616.00
2024-01-16T10:13:05.959Z,616.00
2024-01-16T10:14:06.601Z,620.00
2024-01-16T10:15:05.959Z,623.00
2024-01-16T10:16:06.375Z,628.00
2024-01-16T10:17:06.044Z,643.00
2024-01-16T10:18:06.281Z,660.00
2024-01-16T10:19:06.289Z,678.00
2024-01-16T10:20:06.427Z,693.00
2024-01-16T10:21:06.353Z,703.00
2024-01-16T10:22:06.350Z,720.00
2024-01-16T10:23:06.345Z,725.00
2024-01-16T10:24:06.370Z,744.00
2024-01-16T10:25:06.509Z,742.00
2024-01-16T10:26:06.439Z,749.00
2024-01-16T10:27:06.968Z,764.00
2024-01-16T10:28:06.505Z,773.00
2024-01-16T10:29:06.487Z,776.00
2024-01-16T10:30:07.062Z,789.00
2024-01-16T10:31:06.784Z,797.00
2024-01-16T10:32:07.092Z,784.00
2024-01-16T10:33:07.685Z,781.00
2024-01-16T10:34:06.751Z,788.00
2024-01-16T10:35:06.829Z,767.00
2024-01-16T10:36:06.711Z,775.00
2024-01-16T10:37:06.882Z,773.00
2024-01-16T10:38:06.951Z,777.00
2024-01-16T10:39:06.710Z,772.00
2024-01-16T10:40:07.786Z,787.00
2024-01-16T10:41:07.334Z,815.00
2024-01-16T10:42:06.861Z,832.00
2024-01-16T10:43:06.984Z,837.00
2024-01-16T10:44:07.021Z,837.00
2024-01-16T10:45:07.069Z,839.00
2024-01-16T10:46:07.435Z,854.00
2024-01-16T10:47:07.212Z,866.00
2024-01-16T10:48:08.013Z,917.00
2024-01-16T10:49:07.335Z,1002.00
2024-01-16T10:50:07.390Z,1024.00
2024-01-16T10:51:07.440Z,1025.00
2024-01-16T10:52:07.480Z,1039.00
2024-01-16T10:53:07.706Z,1046.00
2024-01-16T10:54:07.818Z,1058.00
2024-01-16T10:55:07.870Z,1066.00
2024-01-16T10:56:07.666Z,1062.00
2024-01-16T10:57:07.681Z,1080.00
2024-01-16T10:58:08.516Z,1088.00
2024-01-16T10:59:08.471Z,1112.00
2024-01-16T11:00:08.224Z,1113.00
2024-01-16T11:01:08.046Z,1116.00
2024-01-16T11:02:08.117Z,1175.00
2024-01-16T11:03:07.734Z,1240.00
2024-01-16T11:04:07.918Z,1329.00
2024-01-16T11:05:07.759Z,1343.00
2024-01-16T11:06:07.790Z,1344.00
2024-01-16T11:07:07.736Z,1358.00
2024-01-16T11:08:07.737Z,1362.00
2024-01-16T11:09:07.746Z,1384.00
2024-01-16T11:10:07.892Z,1384.00
2024-01-16T11:11:07.739Z,1383.00
2024-01-16T11:12:07.734Z,1399.00
2024-01-16T11:13:07.721Z,1392.00
2024-01-16T11:14:07.731Z,1416.00
2024-01-16T11:15:08.896Z,1422.00
2024-01-16T11:16:07.793Z,1441.00
2024-01-16T11:17:07.738Z,1435.00
2024-01-16T11:18:08.096Z,1469.00
2024-01-16T11:19:24.894Z,1481.00
2024-01-16T11:20:21.939Z,1482.00
2024-01-16T11:21:09.981Z,1483.00
2024-01-16T11:22:07.989Z,1484.00
2024-01-16T11:23:07.752Z,1489.00
2024-01-16T11:24:07.744Z,1502.00
2024-01-16T11:25:07.881Z,1508.00
2024-01-16T11:26:07.768Z,1515.00
2024-01-16T11:27:07.894Z,1494.00
2024-01-16T11:28:07.804Z,1465.00
2024-01-16T11:29:07.834Z,1468.00
2024-01-16T11:30:08.016Z,1515.00
2024-01-16T11:31:07.912Z,1531.00
2024-01-16T11:32:18.682Z,1524.00
2024-01-16T11:33:08.007Z,1525.00
2024-01-16T11:34:07.997Z,1526.00
2024-01-16T11:35:08.030Z,1527.00
2024-01-16T11:36:07.913Z,1521.00
2024-01-16T11:37:07.887Z,1513.00
2024-01-16T11:38:07.900Z,1513.00
2024-01-16T11:39:07.901Z,1522.00
2024-01-16T11:40:07.953Z,1530.00
2024-01-16T11:41:07.873Z,1524.00
2024-01-16T11:42:07.935Z,1546.00
2024-01-16T11:43:07.895Z,1561.00
2024-01-16T11:44:07.885Z,1565.00
2024-01-16T11:45:08.448Z,1582.00
2024-01-16T11:46:07.881Z,1577.00
2024-01-16T11:47:07.896Z,1596.00
2024-01-16T11:48:08.055Z,1614.00
2024-01-16T11:49:08.079Z,1620.00
2024-01-16T11:50:08.383Z,1619.00
2024-01-16T11:51:08.428Z,1635.00
2024-01-16T11:52:08.201Z,1641.00
2024-01-16T11:53:08.254Z,1661.00
2024-01-16T11:54:09.177Z,1681.00
2024-01-16T11:55:08.357Z,1700.00
2024-01-16T11:56:08.884Z,1728.00
2024-01-16T11:57:08.524Z,1763.00
2024-01-16T11:58:08.532Z,1781.00
2024-01-16T11:59:08.572Z,1787.00
2024-01-16T12:00:08.642Z,1812.00
2024-01-16T12:01:08.774Z,1823.00
2024-01-16T12:02:08.716Z,1831.00
2024-01-16T12:03:09.608Z,1835.00
2024-01-16T12:04:08.788Z,1859.00
2024-01-16T12:05:08.854Z,1868.00
2024-01-16T12:06:08.949Z,1887.00
2024-01-16T12:07:08.846Z,1903.00
2024-01-16T12:08:08.902Z,1917.00
2024-01-16T12:09:08.818Z,1931.00
2024-01-16T12:10:08.764Z,1948.00
2024-01-16T12:11:08.908Z,1957.00
2024-01-16T12:12:08.788Z,1967.00
2024-01-16T12:13:08.893Z,1972.00
2024-01-16T12:14:08.766Z,1978.00
2024-01-16T12:15:08.767Z,1989.00
2024-01-16T12:16:08.784Z,2013.00
2024-01-16T12:17:08.900Z,2020.00
2024-01-16T12:19:07.913Z,1854.00
2024-01-16T12:20:08.972Z,1813.00
2024-01-16T12:21:08.812Z,1712.00
2024-01-16T12:22:08.790Z,1610.00
2024-01-16T12:23:08.783Z,1522.00
2024-01-16T12:24:11.305Z,1461.00
2024-01-16T12:25:09.398Z,1422.00
2024-01-16T12:26:09.066Z,1384.00
2024-01-16T12:27:09.121Z,1367.00
2024-01-16T12:28:10.538Z,1355.00
2024-01-16T12:29:09.235Z,1293.00
2024-01-16T12:30:09.451Z,1333.00
2024-01-16T12:31:09.312Z,1363.00
2024-01-16T12:32:09.369Z,1392.00
2024-01-16T12:33:11.491Z,1281.00
2024-01-16T12:34:10.130Z,1169.00
2024-01-16T12:35:09.468Z,1053.00
2024-01-16T12:36:09.484Z,926.00
2024-01-16T12:37:09.396Z,798.00
2024-01-16T12:38:09.918Z,698.00
2024-01-16T12:39:09.432Z,647.00
2024-01-16T12:40:09.544Z,630.00
2024-01-16T12:41:09.441Z,610.00
2024-01-16T12:42:09.527Z,600.00
2024-01-16T12:43:09.513Z,600.00
2024-01-16T12:44:15.478Z,601.00
2024-01-16T12:45:09.943Z,601.00
2024-01-16T12:46:09.528Z,602.00
2024-01-16T12:47:09.544Z,604.00
2024-01-16T12:48:09.801Z,604.00
2024-01-16T12:49:09.643Z,604.00
2024-01-16T12:50:10.023Z,605.00
2024-01-16T12:51:09.707Z,604.00
2024-01-16T12:52:09.564Z,607.00
2024-01-16T12:53:09.532Z,607.00
2024-01-16T12:54:09.621Z,608.00
2024-01-16T12:55:09.924Z,607.00
2024-01-16T12:56:09.543Z,605.00
2024-01-16T12:57:09.610Z,610.00
2024-01-16T12:58:09.538Z,609.00
2024-01-16T12:59:09.541Z,609.00
2024-01-16T13:00:09.949Z,614.00
2024-01-16T13:01:09.576Z,615.00
2024-01-16T13:02:09.545Z,617.00
2024-01-16T13:03:10.001Z,621.00
2024-01-16T13:04:09.912Z,623.00
2024-01-16T13:05:10.000Z,620.00
2024-01-16T13:06:09.708Z,621.00
2024-01-16T13:07:09.814Z,624.00
2024-01-16T13:08:09.952Z,625.00
2024-01-16T13:09:09.921Z,623.00
2024-01-16T13:10:10.324Z,628.00
2024-01-16T13:11:09.568Z,630.00
2024-01-16T13:12:09.607Z,630.00
2024-01-16T13:13:09.645Z,632.00